Time;durP1;ratioP1;P1;durP2;ratioP2;P2;SDS_P1;SDS_P2;PMS_P1;PMS_P2;Temp;Humidity;BMP_temperature;BMP_pressure;BME280_temperature;BME280_humidity;BME280_pressure;Samples;Min_cycle;Max_cycle;Signal;HPM_P1;HPM_P2
2022/08/03 00:01:20;;;;;;;12.07;9.48;;;24.50;74.50;;;;;;6147475;28;82935;-69
2022/08/03 00:04:21;;;;;;;14.77;9.80;;;24.50;74.10;;;;;;6138232;28;80456;-68
2022/08/03 00:07:21;;;;;;;12.60;9.32;;;24.50;74.10;;;;;;6149072;28;80619;-69
2022/08/03 00:10:22;;;;;;;12.68;9.48;;;24.50;74.10;;;;;;6138201;28;81091;-69
2022/08/03 00:13:22;;;;;;;11.55;9.40;;;24.50;74.10;;;;;;6146672;28;80389;-69
2022/08/03 00:16:26;;;;;;;14.63;9.80;;;24.50;74.10;;;;;;6155462;28;80415;-68
2022/08/03 00:19:27;;;;;;;11.93;8.88;;;24.40;74.10;;;;;;6148536;28;81639;-68
2022/08/03 00:22:27;;;;;;;14.60;10.35;;;24.40;74.20;;;;;;6135438;28;80981;-68
2022/08/03 00:25:28;;;;;;;15.45;9.88;;;24.40;74.30;;;;;;6132184;28;82863;-68
2022/08/03 00:28:28;;;;;;;11.75;9.13;;;24.30;74.10;;;;;;6157674;28;82944;-69
2022/08/03 00:31:28;;;;;;;15.25;9.68;;;24.30;74.30;;;;;;6143820;28;80550;-68
2022/08/03 00:34:30;;;;;;;12.27;10.00;;;24.30;74.30;;;;;;6159135;28;80434;-68
2022/08/03 00:37:30;;;;;;;16.65;9.93;;;24.30;74.10;;;;;;6155741;28;82996;-67
2022/08/03 00:40:31;;;;;;;11.88;9.68;;;24.30;74.00;;;;;;6142832;28;82843;-68
2022/08/03 00:43:31;;;;;;;13.65;10.60;;;24.30;74.00;;;;;;6161410;28;81794;-69
2022/08/03 00:46:32;;;;;;;11.48;9.45;;;24.30;74.20;;;;;;6146231;28;90580;-69
2022/08/03 00:49:32;;;;;;;14.13;9.95;;;24.40;74.10;;;;;;6148786;28;83217;-69
2022/08/03 00:52:33;;;;;;;12.35;9.88;;;24.40;74.60;;;;;;6139265;28;80907;-69
2022/08/03 00:55:33;;;;;;;17.05;10.10;;;24.40;73.90;;;;;;6150993;28;81204;-69
2022/08/03 00:58:34;;;;;;;12.93;11.07;;;24.30;74.00;;;;;;6154637;28;82917;-70
2022/08/03 01:01:34;;;;;;;12.55;10.35;;;24.30;74.00;;;;;;6160034;28;84251;-70
2022/08/03 01:04:35;;;;;;;14.50;10.65;;;24.30;73.80;;;;;;6160010;28;82965;-69
2022/08/03 01:07:35;;;;;;;13.90;10.68;;;24.20;73.90;;;;;;6158268;28;84798;-69
2022/08/03 01:10:37;;;;;;;13.32;9.98;;;24.20;74.30;;;;;;6135875;28;84218;-69
2022/08/03 01:13:37;;;;;;;11.02;9.02;;;24.30;74.10;;;;;;6149268;28;83237;-69
2022/08/03 01:16:38;;;;;;;12.45;9.18;;;24.30;73.80;;;;;;6148461;28;84254;-69
2022/08/03 01:19:38;;;;;;;13.88;9.75;;;24.40;73.60;;;;;;6148009;28;82063;-70
2022/08/03 01:22:39;;;;;;;12.52;9.10;;;24.40;73.20;;;;;;6151816;28;83427;-69
2022/08/03 01:25:40;;;;;;;14.30;9.15;;;24.50;73.00;;;;;;6157754;28;80434;-69
2022/08/03 01:28:40;;;;;;;15.20;8.82;;;24.50;72.80;;;;;;6161353;28;80444;-68
2022/08/03 01:31:41;;;;;;;12.88;9.43;;;24.40;72.30;;;;;;6139085;28;80568;-68
2022/08/03 01:34:41;;;;;;;18.00;9.98;;;24.40;72.10;;;;;;6157779;28;81467;-69
2022/08/03 01:37:42;;;;;;;13.93;8.38;;;24.40;72.20;;;;;;6139808;28;83194;-69
2022/08/03 01:40:43;;;;;;;11.30;8.52;;;24.40;72.00;;;;;;6141553;28;83210;-69
2022/08/03 01:43:44;;;;;;;11.32;8.77;;;24.50;72.00;;;;;;6157109;28;81548;-70
2022/08/03 01:46:47;;;;;;;10.73;8.43;;;24.60;71.90;;;;;;6148206;28;80424;-70
2022/08/03 01:49:48;;;;;;;12.48;8.48;;;24.60;71.60;;;;;;6161715;28;82064;-70
2022/08/03 01:52:49;;;;;;;11.95;8.63;;;24.60;71.40;;;;;;6145448;28;81086;-70
2022/08/03 01:55:49;;;;;;;12.05;7.95;;;24.60;71.10;;;;;;6151893;28;80110;-69
2022/08/03 01:58:50;;;;;;;10.65;8.82;;;24.60;70.80;;;;;;6144593;28;81074;-69
2022/08/03 02:01:50;;;;;;;23.65;8.80;;;24.60;70.60;;;;;;6147816;28;80436;-69
2022/08/03 02:04:51;;;;;;;13.43;8.85;;;24.50;70.60;;;;;;6157819;28;80325;-68
2022/08/03 02:07:51;;;;;;;13.23;9.57;;;24.50;70.60;;;;;;6138818;28;80585;-68
2022/08/03 02:10:52;;;;;;;16.75;8.07;;;24.50;70.50;;;;;;6149961;28;81365;-69
2022/08/03 02:13:52;;;;;;;12.15;7.72;;;24.60;70.70;;;;;;6155721;28;80416;-67
2022/08/03 02:16:53;;;;;;;12.40;8.55;;;24.60;70.80;;;;;;6143143;28;80759;-68
2022/08/03 02:19:53;;;;;;;11.35;8.50;;;24.60;70.40;;;;;;6137758;28;80367;-69
2022/08/03 02:22:54;;;;;;;12.63;7.95;;;24.60;70.00;;;;;;6137966;28;80148;-69
2022/08/03 02:25:54;;;;;;;13.70;8.60;;;24.60;69.90;;;;;;6158893;28;81825;-69
2022/08/03 02:28:55;;;;;;;9.18;7.78;;;24.50;69.80;;;;;;6145362;28;81434;-70
2022/08/03 02:31:55;;;;;;;13.85;8.52;;;24.50;69.70;;;;;;6159775;28;81416;-69
2022/08/03 02:34:56;;;;;;;10.57;8.10;;;24.50;69.70;;;;;;6149949;28;80121;-69
2022/08/03 02:37:56;;;;;;;9.73;7.65;;;24.50;69.70;;;;;;6138659;28;80484;-69
2022/08/03 02:40:57;;;;;;;15.55;8.25;;;24.50;69.60;;;;;;6155068;28;82231;-70
2022/08/03 02:43:57;;;;;;;9.27;7.70;;;24.60;69.70;;;;;;6161497;28;80303;-69
2022/08/03 02:46:58;;;;;;;11.13;8.13;;;24.60;69.70;;;;;;6161559;28;82205;-70
2022/08/03 02:49:58;;;;;;;10.18;8.27;;;24.60;69.60;;;;;;6161590;28;80629;-70
2022/08/03 02:52:59;;;;;;;11.55;7.95;;;24.60;69.60;;;;;;6154436;28;80175;-70
2022/08/03 02:55:59;;;;;;;8.85;7.95;;;24.60;69.60;;;;;;6140910;28;80196;-70
2022/08/03 02:59:00;;;;;;;9.75;8.07;;;24.60;69.60;;;;;;6159188;28;81341;-69
2022/08/03 03:02:00;;;;;;;9.73;7.65;;;24.60;69.50;;;;;;6147170;28;80116;-69
2022/08/03 03:05:01;;;;;;;9.40;7.60;;;24.60;69.40;;;;;;6153599;28;80711;-69
2022/08/03 03:08:01;;;;;;;11.90;8.30;;;24.60;69.40;;;;;;6155096;28;80616;-70
2022/08/03 03:11:02;;;;;;;11.05;8.10;;;24.60;69.00;;;;;;6154905;28;81207;-71
2022/08/03 03:14:02;;;;;;;13.05;8.10;;;24.40;68.60;;;;;;6156056;28;80866;-71
2022/08/03 03:17:03;;;;;;;11.95;8.43;;;24.30;68.90;;;;;;6141428;28;80281;-71
2022/08/03 03:20:03;;;;;;;15.55;8.90;;;24.30;68.60;;;;;;6157843;28;80382;-72
2022/08/03 03:23:04;;;;;;;10.52;7.60;;;24.30;68.70;;;;;;6150696;28;80559;-73
2022/08/03 03:26:04;;;;;;;12.20;8.48;;;24.30;68.70;;;;;;6152549;28;80712;-70
2022/08/03 03:29:05;;;;;;;9.93;7.93;;;24.30;68.70;;;;;;6152575;28;81447;-70
2022/08/03 03:32:05;;;;;;;15.25;8.27;;;24.40;68.90;;;;;;6154213;28;80748;-70
2022/08/03 03:35:06;;;;;;;18.58;9.32;;;24.40;68.90;;;;;;6154977;28;81866;-69
2022/08/03 03:38:06;;;;;;;15.43;8.85;;;24.40;69.00;;;;;;6152945;28;81586;-71
2022/08/03 03:41:07;;;;;;;11.18;8.07;;;24.40;69.00;;;;;;6143973;28;80496;-68
2022/08/03 03:44:07;;;;;;;10.15;8.18;;;24.40;69.30;;;;;;6152452;28;80404;-68
2022/08/03 03:47:08;;;;;;;13.88;10.07;;;24.50;69.30;;;;;;6121666;28;80857;-68
2022/08/03 03:50:09;;;;;;;13.10;9.68;;;24.50;69.10;;;;;;6146226;28;83433;-67
2022/08/03 03:53:10;;;;;;;13.80;8.30;;;24.50;69.10;;;;;;6131853;28;84216;-67
2022/08/03 03:56:10;;;;;;;12.90;8.52;;;24.50;69.10;;;;;;6130676;28;80905;-68
2022/08/03 03:59:11;;;;;;;11.70;9.52;;;24.50;69.20;;;;;;6125361;28;80624;-66
2022/08/03 04:02:11;;;;;;;14.85;9.88;;;24.50;69.30;;;;;;6128489;28;81536;-66
2022/08/03 04:11:50;;;;;;;15.90;9.75;;;24.60;70.20;;;;;;6149781;28;84822;-72
2022/08/03 04:14:51;;;;;;;17.92;10.63;;;24.60;70.50;;;;;;6151101;28;81722;-76
2022/08/03 04:17:51;;;;;;;16.48;9.90;;;24.60;70.70;;;;;;6138236;28;83165;-69
2022/08/03 04:20:51;;;;;;;16.42;11.32;;;24.70;71.50;;;;;;6148431;28;83112;-67
2022/08/03 04:23:52;;;;;;;18.42;11.60;;;24.70;73.40;;;;;;6133873;28;84093;-67
2022/08/03 04:26:53;;;;;;;18.30;12.65;;;24.90;76.30;;;;;;6146836;28;83025;-67
2022/08/03 04:29:53;;;;;;;25.63;13.88;;;24.90;76.10;;;;;;6155878;28;83012;-67
2022/08/03 04:32:54;;;;;;;16.70;12.02;;;25.00;79.60;;;;;;6146129;28;83080;-67
2022/08/03 04:35:54;;;;;;;18.60;12.70;;;25.10;77.40;;;;;;6131249;28;84469;-66
2022/08/03 04:38:55;;;;;;;23.25;14.50;;;25.10;80.00;;;;;;6131450;28;82841;-66
2022/08/03 04:41:56;;;;;;;18.70;13.68;;;25.20;81.40;;;;;;6146202;28;84206;-71
2022/08/03 04:44:56;;;;;;;16.77;12.68;;;25.30;81.40;;;;;;6139819;28;82910;-67
2022/08/03 04:47:57;;;;;;;21.95;16.50;;;25.30;79.90;;;;;;6142081;28;83850;-68
2022/08/03 04:50:59;;;;;;;19.77;15.57;;;25.30;88.70;;;;;;6145538;28;82925;-68
2022/08/03 04:54:00;;;;;;;18.98;14.77;;;25.30;87.10;;;;;;6143162;28;83304;-68
2022/08/03 04:57:01;;;;;;;18.35;13.85;;;25.30;87.10;;;;;;6115761;28;83462;-71
2022/08/03 05:00:01;;;;;;;16.55;11.95;;;25.30;84.30;;;;;;6152345;28;83370;-65
2022/08/03 05:03:02;;;;;;;16.33;11.82;;;25.30;81.10;;;;;;6146874;28;84017;-68
2022/08/03 05:06:02;;;;;;;17.00;11.48;;;25.30;80.60;;;;;;6152288;28;84263;-67
2022/08/03 05:09:03;;;;;;;26.70;18.33;;;25.20;78.90;;;;;;6142022;28;84812;-67
2022/08/03 05:12:03;;;;;;;59.85;39.40;;;25.20;77.50;;;;;;6145220;28;83487;-66
2022/08/03 05:15:04;;;;;;;57.28;38.47;;;25.20;76.80;;;;;;6136752;28;84230;-66
2022/08/03 05:18:05;;;;;;;52.80;34.60;;;25.00;75.70;;;;;;6148518;28;82982;-67
2022/08/03 05:21:05;;;;;;;46.80;32.85;;;24.90;75.10;;;;;;6144031;28;83174;-66
2022/08/03 05:24:06;;;;;;;43.40;30.55;;;24.90;74.80;;;;;;6137330;28;83078;-67
2022/08/03 05:27:06;;;;;;;35.15;23.77;;;24.90;74.50;;;;;;6158314;28;83171;-67
2022/08/03 05:30:07;;;;;;;34.17;21.85;;;24.70;74.20;;;;;;6144189;28;83512;-67
2022/08/03 05:33:08;;;;;;;44.13;19.77;;;24.60;74.60;;;;;;6123297;28;84126;-69
2022/08/03 05:36:08;;;;;;;24.33;16.67;;;24.60;74.50;;;;;;6130111;28;83569;-70
2022/08/03 05:39:09;;;;;;;22.35;14.18;;;24.70;74.10;;;;;;6147533;28;84250;-69
2022/08/03 05:42:09;;;;;;;20.98;13.98;;;24.70;73.50;;;;;;6142410;28;82987;-68
2022/08/03 05:45:18;;;;;;;14.48;11.65;;;24.50;73.80;;;;;;6140174;28;83193;-70
2022/08/03 05:48:19;;;;;;;16.95;12.07;;;24.50;73.30;;;;;;6148218;28;83403;-68
2022/08/03 05:51:19;;;;;;;24.42;15.18;;;24.60;73.70;;;;;;6157753;28;83171;-74
2022/08/03 05:54:20;;;;;;;22.02;13.48;;;24.70;73.40;;;;;;6147581;28;83203;-69
2022/08/03 05:57:21;;;;;;;19.35;13.05;;;24.70;73.30;;;;;;6144641;28;83116;-71
2022/08/03 06:00:21;;;;;;;17.80;11.85;;;24.80;73.30;;;;;;6144008;28;83566;-71
2022/08/03 06:03:22;;;;;;;17.65;11.77;;;24.80;73.40;;;;;;6146658;28;83321;-71
2022/08/03 06:06:22;;;;;;;23.65;10.90;;;24.90;73.60;;;;;;6150072;28;83197;-69
2022/08/03 06:09:22;;;;;;;15.27;10.52;;;25.00;73.60;;;;;;6147146;28;83393;-70
2022/08/03 06:12:23;;;;;;;22.17;9.70;;;25.10;73.90;;;;;;6148656;28;84128;-70
2022/08/03 06:15:23;;;;;;;15.95;10.88;;;25.10;73.60;;;;;;6154629;28;82789;-70
2022/08/03 06:18:24;;;;;;;15.15;9.80;;;25.10;74.00;;;;;;6150129;28;83972;-70
2022/08/03 06:21:24;;;;;;;45.17;10.10;;;25.30;74.00;;;;;;6148493;28;83510;-71
2022/08/03 06:24:25;;;;;;;13.52;9.63;;;25.30;73.80;;;;;;6156337;28;82981;-70
2022/08/03 06:27:25;;;;;;;14.75;9.60;;;25.30;73.30;;;;;;6151961;28;83047;-69
2022/08/03 06:30:26;;;;;;;12.30;9.43;;;25.30;72.70;;;;;;6155583;28;81687;-68
2022/08/03 06:33:27;;;;;;;14.90;8.77;;;25.30;72.20;;;;;;6150089;28;80636;-72
2022/08/03 06:36:30;;;;;;;14.02;10.43;;;25.10;72.50;;;;;;6145987;28;81150;-70
2022/08/03 06:39:31;;;;;;;15.75;9.57;;;25.10;73.00;;;;;;6130059;28;82794;-69
2022/08/03 06:42:31;;;;;;;10.65;8.68;;;25.00;73.70;;;;;;6127276;28;81860;-66
2022/08/03 06:45:32;;;;;;;14.25;10.00;;;25.10;73.30;;;;;;6135725;28;80578;-71
2022/08/03 06:48:32;;;;;;;17.98;9.40;;;25.10;73.80;;;;;;6168246;28;83198;-68
2022/08/03 06:51:33;;;;;;;13.80;9.93;;;25.10;73.90;;;;;;6142234;28;81997;-69
2022/08/03 06:54:33;;;;;;;12.45;8.10;;;25.20;74.00;;;;;;6148977;28;80954;-70
2022/08/03 06:57:34;;;;;;;13.93;8.68;;;25.30;73.80;;;;;;6142687;28;80358;-70
2022/08/03 07:00:34;;;;;;;13.52;9.75;;;25.30;73.00;;;;;;6150647;28;80980;-70
2022/08/03 07:03:35;;;;;;;11.40;8.85;;;25.40;73.30;;;;;;6137728;28;80482;-70
2022/08/03 07:06:35;;;;;;;14.63;9.00;;;25.40;72.80;;;;;;6158052;28;80412;-70
2022/08/03 07:09:36;;;;;;;11.63;8.85;;;25.50;72.80;;;;;;6156169;28;80390;-70
2022/08/03 07:12:36;;;;;;;18.52;9.40;;;25.50;72.80;;;;;;6146123;28;80833;-70
2022/08/03 07:15:37;;;;;;;11.65;8.93;;;25.50;72.60;;;;;;6147145;28;81244;-70
2022/08/03 07:18:37;;;;;;;15.60;9.00;;;25.50;72.50;;;;;;6142484;28;80861;-71
2022/08/03 07:21:38;;;;;;;10.02;8.18;;;25.50;72.40;;;;;;6145165;28;80522;-72
2022/08/03 07:24:40;;;;;;;15.55;9.63;;;25.50;72.20;;;;;;6147770;28;80964;-72
2022/08/03 07:27:41;;;;;;;11.40;8.38;;;25.50;72.20;;;;;;6160219;28;80772;-72
2022/08/03 07:30:41;;;;;;;11.50;8.65;;;25.50;72.10;;;;;;6159814;28;81288;-71
2022/08/03 07:33:42;;;;;;;10.00;7.75;;;25.50;71.90;;;;;;6157374;28;80566;-71
2022/08/03 07:36:42;;;;;;;11.85;8.48;;;25.50;72.00;;;;;;6140674;28;80918;-70
2022/08/03 07:39:43;;;;;;;9.48;7.95;;;25.50;71.90;;;;;;6155648;28;81075;-71
2022/08/03 07:42:44;;;;;;;11.88;8.75;;;25.50;71.70;;;;;;6159703;28;80539;-71
2022/08/03 07:45:44;;;;;;;13.82;8.38;;;25.50;71.90;;;;;;6142364;28;80386;-71
2022/08/03 07:48:45;;;;;;;14.40;9.43;;;25.60;71.90;;;;;;6135015;28;80438;-70
2022/08/03 07:52:46;;;;;;;11.00;8.65;;;25.60;71.80;;;;;;6148892;28;80533;-70
2022/08/03 07:55:06;;;;;;;11.25;8.63;;;25.60;71.80;;;;;;6158023;28;80879;-71
2022/08/03 07:58:08;;;;;;;12.77;9.32;;;25.60;71.80;;;;;;6145538;28;80472;-71
2022/08/03 08:01:08;;;;;;;9.93;8.65;;;25.70;71.70;;;;;;6146112;28;80436;-71
2022/08/03 08:04:09;;;;;;;9.80;8.20;;;25.70;71.70;;;;;;6143506;28;80456;-71
2022/08/03 08:07:10;;;;;;;13.60;8.57;;;25.70;71.50;;;;;;6145658;28;80443;-70
2022/08/03 08:10:10;;;;;;;12.70;9.38;;;25.70;71.40;;;;;;6155424;28;80881;-70
2022/08/03 08:13:11;;;;;;;11.55;8.90;;;25.80;71.50;;;;;;6153674;28;80782;-70
2022/08/03 08:16:11;;;;;;;11.68;9.05;;;25.80;71.50;;;;;;6157894;28;80709;-70
2022/08/03 08:19:13;;;;;;;13.43;8.57;;;25.80;71.60;;;;;;6145391;28;80562;-70
2022/08/03 08:22:13;;;;;;;11.60;8.93;;;25.80;71.60;;;;;;6139857;28;80924;-71
2022/08/03 08:25:14;;;;;;;9.65;8.27;;;25.80;71.80;;;;;;6138003;28;80133;-71
2022/08/03 08:28:14;;;;;;;10.25;8.15;;;25.80;71.50;;;;;;6159382;28;80646;-70
2022/08/03 08:31:15;;;;;;;11.38;8.98;;;25.80;71.80;;;;;;6149111;28;80797;-70
2022/08/03 08:34:15;;;;;;;13.18;8.98;;;25.90;72.20;;;;;;6141548;28;80601;-71
2022/08/03 08:37:16;;;;;;;11.65;9.15;;;25.90;72.10;;;;;;6159315;28;80556;-70
2022/08/03 08:40:17;;;;;;;14.05;9.10;;;25.90;71.70;;;;;;6158044;28;80779;-71
2022/08/03 08:43:17;;;;;;;12.77;9.30;;;25.90;71.90;;;;;;6134423;28;84194;-71
2022/08/03 08:46:18;;;;;;;11.48;8.27;;;25.90;71.70;;;;;;6121404;28;80465;-70
2022/08/03 08:49:18;;;;;;;11.95;8.23;;;25.90;71.70;;;;;;6116157;28;80452;-71
2022/08/03 08:52:19;;;;;;;11.45;9.73;;;25.90;71.70;;;;;;6124292;28;80309;-70
2022/08/03 08:55:20;;;;;;;12.70;9.75;;;26.00;71.70;;;;;;6122355;28;80873;-70
2022/08/03 08:58:21;;;;;;;10.68;8.82;;;26.00;71.70;;;;;;6125298;28;80466;-70
2022/08/03 09:01:21;;;;;;;13.27;10.50;;;26.00;71.50;;;;;;6126628;28;80629;-70
2022/08/03 09:04:22;;;;;;;11.20;8.95;;;26.00;71.30;;;;;;6124290;28;83401;-70
2022/08/03 09:07:22;;;;;;;12.63;9.30;;;26.00;71.50;;;;;;6127269;28;82903;-69
2022/08/03 09:10:23;;;;;;;11.27;8.75;;;26.00;71.50;;;;;;6138698;28;80345;-70
2022/08/03 09:13:23;;;;;;;13.77;10.15;;;26.00;71.20;;;;;;6131859;28;80442;-69
2022/08/03 09:16:24;;;;;;;16.15;9.45;;;26.00;70.80;;;;;;6127940;28;83182;-70
2022/08/03 09:19:24;;;;;;;10.98;9.32;;;26.10;70.80;;;;;;6124706;28;84128;-70
2022/08/03 09:22:27;;;;;;;12.75;9.40;;;26.10;70.90;;;;;;6130726;28;80835;-70
2022/08/03 09:25:27;;;;;;;12.82;8.98;;;26.10;70.70;;;;;;6132078;28;80655;-70
2022/08/03 09:28:28;;;;;;;12.18;9.15;;;26.00;70.00;;;;;;6121757;28;81067;-69
2022/08/03 09:31:28;;;;;;;13.32;8.57;;;26.10;70.60;;;;;;6114047;28;81735;-69
2022/08/03 09:34:29;;;;;;;11.30;8.57;;;26.10;69.20;;;;;;6127730;28;80402;-69
2022/08/03 09:37:29;;;;;;;13.98;9.10;;;26.10;69.80;;;;;;6151475;28;83042;-69
2022/08/03 09:40:30;;;;;;;10.93;9.07;;;26.10;69.60;;;;;;6160255;28;80262;-69
2022/08/03 09:43:30;;;;;;;11.23;8.35;;;26.10;69.70;;;;;;6150707;28;81051;-69
2022/08/03 09:46:32;;;;;;;10.23;8.25;;;26.10;70.10;;;;;;6152251;28;80356;-69
2022/08/03 09:49:32;;;;;;;10.45;8.30;;;26.10;68.50;;;;;;6150684;28;82688;-69
2022/08/03 09:52:33;;;;;;;11.68;8.82;;;26.10;69.00;;;;;;6140594;28;80145;-69
2022/08/03 09:55:33;;;;;;;9.77;7.88;;;26.20;68.60;;;;;;6160017;28;82480;-69
2022/08/03 09:58:34;;;;;;;8.82;7.90;;;26.20;68.90;;;;;;6149814;28;83115;-69
2022/08/03 10:01:34;;;;;;;13.85;7.97;;;26.20;68.80;;;;;;6153744;28;80587;-70
2022/08/03 10:04:35;;;;;;;10.13;8.30;;;26.20;68.70;;;;;;6141820;28;80516;-69
2022/08/03 10:07:35;;;;;;;10.68;8.15;;;26.20;68.10;;;;;;6160067;28;80340;-69
2022/08/03 10:10:36;;;;;;;9.52;7.75;;;26.20;68.00;;;;;;6148594;28;80460;-69
2022/08/03 10:13:36;;;;;;;10.40;7.63;;;26.20;68.80;;;;;;6159058;28;81246;-69
2022/08/03 10:16:37;;;;;;;8.27;7.05;;;26.20;68.70;;;;;;6159313;28;80892;-70
2022/08/03 10:19:37;;;;;;;10.90;7.68;;;26.20;68.30;;;;;;6147897;28;86409;-70
2022/08/03 10:22:37;;;;;;;10.30;7.38;;;26.20;67.70;;;;;;6152471;28;80368;-70
2022/08/03 10:25:39;;;;;;;9.45;8.02;;;26.30;67.20;;;;;;6150876;28;80524;-70
2022/08/03 10:28:40;;;;;;;9.43;6.90;;;26.20;67.40;;;;;;6153165;28;81754;-69
2022/08/03 10:31:40;;;;;;;8.70;6.97;;;26.30;68.20;;;;;;6160996;28;80486;-70
2022/08/03 10:34:41;;;;;;;8.80;7.00;;;26.30;68.10;;;;;;6161022;28;80339;-70
2022/08/03 10:37:42;;;;;;;8.15;7.05;;;26.30;67.90;;;;;;6153647;28;80449;-70
2022/08/03 10:40:42;;;;;;;8.77;6.90;;;26.30;68.10;;;;;;6150802;28;80576;-69
2022/08/03 10:43:43;;;;;;;9.65;6.93;;;26.30;67.60;;;;;;6137692;28;80552;-70
2022/08/03 10:46:43;;;;;;;7.40;6.60;;;26.30;67.40;;;;;;6161208;28;81464;-69
2022/08/03 10:49:45;;;;;;;9.80;7.55;;;26.40;67.80;;;;;;6147138;28;80269;-67
2022/08/03 10:52:45;;;;;;;10.27;6.68;;;26.40;67.40;;;;;;6155347;28;80314;-68
2022/08/03 10:59:05;;;;;;;9.40;6.55;;;26.40;67.90;;;;;;6126071;28;80840;-68
2022/08/03 11:02:08;;;;;;;7.07;6.35;;;26.40;66.70;;;;;;6112717;28;80392;-69
2022/08/03 11:05:09;;;;;;;9.63;6.00;;;26.40;66.50;;;;;;6125757;28;81575;-69
2022/08/03 11:08:09;;;;;;;9.00;6.43;;;26.40;65.20;;;;;;6125862;28;80372;-69
2022/08/03 11:11:10;;;;;;;7.70;6.90;;;26.40;66.00;;;;;;6124606;28;80461;-68
2022/08/03 11:14:10;;;;;;;7.30;5.72;;;26.40;65.80;;;;;;6136336;28;80218;-68
2022/08/03 11:17:11;;;;;;;8.07;6.18;;;26.40;66.10;;;;;;6135707;28;80481;-68
2022/08/03 11:20:11;;;;;;;9.82;6.40;;;26.40;66.80;;;;;;6130776;28;82824;-68
2022/08/03 11:23:12;;;;;;;6.50;5.90;;;26.40;65.90;;;;;;6111877;28;80874;-69
2022/08/03 11:26:12;;;;;;;7.72;6.47;;;26.50;66.30;;;;;;6122520;28;81037;-68
2022/08/03 11:29:13;;;;;;;7.32;6.20;;;26.40;66.20;;;;;;6136107;28;80803;-68
2022/08/03 11:32:13;;;;;;;7.75;6.10;;;26.50;66.30;;;;;;6136063;28;80935;-69
2022/08/03 11:35:14;;;;;;;9.35;6.03;;;26.40;66.70;;;;;;6142852;28;80758;-68
2022/08/03 11:38:14;;;;;;;6.85;5.40;;;26.50;66.70;;;;;;6147116;28;82226;-68
2022/08/03 11:41:15;;;;;;;8.40;6.60;;;26.50;66.50;;;;;;6156178;28;80455;-68
2022/08/03 11:44:15;;;;;;;6.25;5.65;;;26.40;66.10;;;;;;6155380;28;80510;-69
2022/08/03 11:47:16;;;;;;;8.18;6.20;;;26.50;66.30;;;;;;6149041;28;80267;-68
2022/08/03 11:50:18;;;;;;;9.38;6.13;;;26.40;66.60;;;;;;6148113;28;80545;-68
2022/08/03 11:53:18;;;;;;;8.07;5.90;;;26.50;65.80;;;;;;6136628;28;80504;-68
2022/08/03 11:56:19;;;;;;;7.35;6.15;;;26.50;65.90;;;;;;6143437;28;80495;-69
2022/08/03 11:59:19;;;;;;;8.40;6.30;;;26.50;65.20;;;;;;6134943;28;80867;-69
2022/08/03 12:02:20;;;;;;;6.82;5.43;;;26.50;65.90;;;;;;6135378;28;80311;-69
2022/08/03 12:05:20;;;;;;;8.25;5.85;;;26.50;65.90;;;;;;6135161;28;80450;-69
2022/08/03 12:08:21;;;;;;;10.18;6.13;;;26.50;65.70;;;;;;6142347;28;80446;-68
2022/08/03 12:11:21;;;;;;;7.35;5.65;;;26.50;65.30;;;;;;6155040;28;80763;-69
2022/08/03 12:14:21;;;;;;;7.13;5.82;;;26.60;65.30;;;;;;6157665;28;80750;-69
2022/08/03 12:17:22;;;;;;;6.75;6.05;;;26.50;64.60;;;;;;6147222;28;81353;-69
2022/08/03 12:20:22;;;;;;;8.15;6.38;;;26.60;64.00;;;;;;6153877;28;81200;-70
2022/08/03 12:23:23;;;;;;;6.85;5.95;;;26.50;64.40;;;;;;6144715;28;80351;-70
2022/08/03 12:26:23;;;;;;;6.65;5.70;;;26.60;65.20;;;;;;6146127;28;80424;-70
2022/08/03 12:29:25;;;;;;;7.45;5.40;;;26.60;65.00;;;;;;6148299;28;80439;-69
2022/08/03 12:32:25;;;;;;;7.38;6.07;;;26.50;64.90;;;;;;6139455;28;81509;-70
2022/08/03 12:35:26;;;;;;;11.48;6.10;;;26.60;64.20;;;;;;6142726;28;80323;-69
2022/08/03 12:38:26;;;;;;;6.35;5.30;;;26.50;64.30;;;;;;6138665;28;80433;-70
2022/08/03 12:41:27;;;;;;;7.10;5.72;;;26.60;64.30;;;;;;6148550;28;82067;-70
2022/08/03 12:44:27;;;;;;;5.72;5.13;;;26.60;63.70;;;;;;6138576;28;81539;-70
2022/08/03 12:47:28;;;;;;;5.97;5.38;;;26.60;64.30;;;;;;6154977;28;81590;-70
2022/08/03 12:50:28;;;;;;;5.22;4.47;;;26.60;64.20;;;;;;6163030;28;80865;-70
2022/08/03 12:53:29;;;;;;;5.38;4.88;;;26.60;64.10;;;;;;6152088;28;80217;-70
2022/08/03 12:56:29;;;;;;;8.68;5.32;;;26.70;64.30;;;;;;6149718;28;80964;-70
2022/08/03 12:59:30;;;;;;;7.68;5.57;;;26.70;64.20;;;;;;6157858;28;80451;-70
2022/08/03 13:02:30;;;;;;;5.90;5.30;;;26.60;63.80;;;;;;6148745;28;80226;-70
2022/08/03 13:05:31;;;;;;;7.70;6.20;;;26.60;63.10;;;;;;6140315;28;80502;-69
2022/08/03 13:08:31;;;;;;;6.65;5.22;;;26.70;63.80;;;;;;6137635;28;80643;-69
2022/08/03 13:11:32;;;;;;;8.43;5.15;;;26.70;64.00;;;;;;6153844;28;80853;-69
2022/08/03 13:14:32;;;;;;;5.35;4.80;;;26.60;64.00;;;;;;6148088;28;84810;-68
2022/08/03 13:17:33;;;;;;;6.22;5.00;;;26.60;62.90;;;;;;6152944;28;80585;-69
2022/08/03 13:20:33;;;;;;;7.10;5.47;;;26.70;63.20;;;;;;6157895;28;80889;-70
2022/08/03 13:23:34;;;;;;;6.30;5.30;;;26.70;63.50;;;;;;6145897;28;80482;-69
2022/08/03 13:26:34;;;;;;;7.05;4.95;;;26.60;63.60;;;;;;6138115;28;80364;-69
2022/08/03 13:29:35;;;;;;;6.57;5.80;;;26.60;63.70;;;;;;6138074;28;80545;-68
2022/08/03 13:32:35;;;;;;;5.43;4.70;;;26.60;63.00;;;;;;6158562;28;80222;-68
2022/08/03 13:35:36;;;;;;;5.50;4.68;;;26.60;63.00;;;;;;6158595;28;80338;-68
2022/08/03 13:38:36;;;;;;;10.05;5.07;;;26.60;63.70;;;;;;6151392;28;81451;-69
2022/08/03 13:41:37;;;;;;;5.80;5.20;;;26.60;63.70;;;;;;6147957;28;80532;-68
2022/08/03 13:44:37;;;;;;;7.38;5.38;;;26.60;63.90;;;;;;6145364;28;82195;-68
2022/08/03 13:47:38;;;;;;;5.50;4.50;;;26.60;63.80;;;;;;6161204;28;80308;-68
2022/08/03 13:50:38;;;;;;;9.18;5.25;;;26.60;63.70;;;;;;6162264;28;80757;-69
2022/08/03 13:53:39;;;;;;;6.00;4.93;;;26.60;63.90;;;;;;6150183;28;80176;-69
2022/08/03 13:56:39;;;;;;;7.43;5.82;;;26.60;63.60;;;;;;6154977;28;81611;-69
2022/08/03 13:59:40;;;;;;;6.28;5.35;;;26.60;63.50;;;;;;6147607;28;80191;-69
2022/08/03 14:02:40;;;;;;;5.80;5.07;;;26.60;63.40;;;;;;6147741;28;80584;-69
2022/08/03 14:05:41;;;;;;;5.70;5.10;;;26.60;63.80;;;;;;6148627;28;80886;-68
2022/08/03 14:08:41;;;;;;;5.65;4.88;;;26.60;63.30;;;;;;6161348;28;80838;-69
2022/08/03 14:11:42;;;;;;;9.93;5.53;;;26.50;63.20;;;;;;6154261;28;80641;-69
2022/08/03 14:14:42;;;;;;;7.35;5.50;;;26.50;64.30;;;;;;6151340;28;80760;-70
2022/08/03 14:17:43;;;;;;;10.90;5.55;;;26.50;63.80;;;;;;6137436;28;80225;-69
2022/08/03 14:20:43;;;;;;;6.35;4.93;;;26.50;63.70;;;;;;6150484;28;81963;-69
2022/08/03 14:23:44;;;;;;;7.22;5.47;;;26.50;63.50;;;;;;6141293;28;81419;-70
2022/08/03 14:26:44;;;;;;;6.45;5.38;;;26.50;63.60;;;;;;6146585;28;80299;-70
2022/08/03 14:29:45;;;;;;;8.15;5.95;;;26.50;63.10;;;;;;6148015;28;81750;-69
2022/08/03 14:32:45;;;;;;;7.15;5.50;;;26.50;63.10;;;;;;6160414;28;80570;-69
2022/08/03 14:35:46;;;;;;;8.15;5.63;;;26.50;63.50;;;;;;6147009;28;80576;-70
2022/08/03 14:38:46;;;;;;;11.15;6.30;;;26.50;63.30;;;;;;6157213;28;81245;-69
2022/08/03 14:41:47;;;;;;;8.60;5.82;;;26.50;62.70;;;;;;6159250;28;81306;-69
2022/08/03 14:44:47;;;;;;;6.50;5.75;;;26.50;62.60;;;;;;6137438;28;80427;-69
2022/08/03 14:47:48;;;;;;;6.60;5.43;;;26.50;62.40;;;;;;6142496;28;80157;-69
2022/08/03 14:50:48;;;;;;;6.80;5.57;;;26.50;62.40;;;;;;6143991;28;80791;-69
2022/08/03 14:53:49;;;;;;;8.43;6.00;;;26.50;62.50;;;;;;6136372;28;80288;-69
2022/08/03 14:56:49;;;;;;;6.35;5.47;;;26.50;62.00;;;;;;6120361;28;80869;-70
2022/08/03 14:59:50;;;;;;;8.20;6.30;;;26.50;62.60;;;;;;6118023;28;81607;-69
2022/08/03 15:02:50;;;;;;;6.47;5.25;;;26.50;62.60;;;;;;6131203;28;80499;-69
2022/08/03 15:05:51;;;;;;;8.25;6.25;;;26.50;62.80;;;;;;6128727;28;81290;-73
2022/08/03 15:08:53;;;;;;;7.13;5.47;;;26.60;60.50;;;;;;6137037;28;80531;-70
2022/08/03 15:11:53;;;;;;;6.60;5.22;;;26.70;60.50;;;;;;6139507;28;80423;-69
2022/08/03 15:14:53;;;;;;;6.18;5.50;;;26.70;59.40;;;;;;6146046;28;80570;-67
2022/08/03 15:17:54;;;;;;;8.43;5.15;;;26.70;59.00;;;;;;6148431;28;80908;-69
2022/08/03 15:20:54;;;;;;;10.20;6.05;;;26.80;57.60;;;;;;6152755;28;80494;-67
2022/08/03 15:23:55;;;;;;;7.03;5.82;;;26.90;57.70;;;;;;6139000;28;81492;-67
2022/08/03 15:26:55;;;;;;;7.15;5.18;;;26.90;57.60;;;;;;6137767;28;80323;-68
2022/08/03 15:29:56;;;;;;;10.43;5.78;;;27.00;56.80;;;;;;6137205;28;80297;-66
2022/08/03 15:32:56;;;;;;;8.38;5.28;;;27.10;55.40;;;;;;6135752;28;81608;-67
2022/08/03 15:35:58;;;;;;;9.02;5.43;;;27.10;55.10;;;;;;6136450;28;80455;-67
2022/08/03 15:38:59;;;;;;;7.20;5.95;;;27.10;56.10;;;;;;6146863;28;80435;-66